sensor_id;sensor_type;location;lat;lon;timestamp;temperature;humidity
16968;DHT22;64862;54.398;10.126;2024-03-23T00:55:51;7.30;99.90
16968;DHT22;64862;54.398;10.126;2024-03-23T01:05:53;7.40;99.90
16968;DHT22;64862;54.398;10.126;2024-03-23T01:15:57;7.60;99.90
16968;DHT22;64862;54.398;10.126;2024-03-23T01:25:59;7.40;99.90
16968;DHT22;64862;54.398;10.126;2024-03-23T01:36:02;7.40;99.90
16968;DHT22;64862;54.398;10.126;2024-03-23T01:46:04;7.30;99.90
16968;DHT22;64862;54.398;10.126;2024-03-23T01:56:07;7.30;99.90
16968;DHT22;64862;54.398;10.126;2024-03-23T02:06:09;7.30;99.90
16968;DHT22;64862;54.398;10.126;2024-03-23T02:16:13;7.20;99.90
16968;DHT22;64862;54.398;10.126;2024-03-23T02:26:16;7.10;99.90
16968;DHT22;64862;54.398;10.126;2024-03-23T02:36:18;7.10;99.90
16968;DHT22;64862;54.398;10.126;2024-03-23T02:46:23;7.10;99.90
16968;DHT22;64862;54.398;10.126;2024-03-23T02:56:25;7.10;99.90
16968;DHT22;64862;54.398;10.126;2024-03-23T03:06:29;7.20;99.90
16968;DHT22;64862;54.398;10.126;2024-03-23T03:16:31;7.30;99.90
16968;DHT22;64862;54.398;10.126;2024-03-23T03:26:35;7.20;99.90
16968;DHT22;64862;54.398;10.126;2024-03-23T03:36:37;7.10;99.90
16968;DHT22;64862;54.398;10.126;2024-03-23T03:46:41;7.10;99.90
16968;DHT22;64862;54.398;10.126;2024-03-23T03:56:43;7.10;99.90
16968;DHT22;64862;54.398;10.126;2024-03-23T04:06:46;7.10;99.90
16968;DHT22;64862;54.398;10.126;2024-03-23T04:16:48;7.10;99.90
16968;DHT22;64862;54.398;10.126;2024-03-23T04:26:51;7.20;99.90
16968;DHT22;64862;54.398;10.126;2024-03-23T04:36:53;7.20;99.90
16968;DHT22;64862;54.398;10.126;2024-03-23T04:46:57;7.10;99.90
16968;DHT22;64862;54.398;10.126;2024-03-23T04:56:59;6.90;99.90
16968;DHT22;64862;54.398;10.126;2024-03-23T05:07:03;6.80;99.90
16968;DHT22;64862;54.398;10.126;2024-03-23T05:17:07;6.70;99.90
16968;DHT22;64862;54.398;10.126;2024-03-23T05:27:11;6.60;99.90
16968;DHT22;64862;54.398;10.126;2024-03-23T05:37:13;6.60;99.90
16968;DHT22;64862;54.398;10.126;2024-03-23T05:47:17;6.70;99.90
16968;DHT22;64862;54.398;10.126;2024-03-23T05:57:21;6.80;99.90
16968;DHT22;64862;54.398;10.126;2024-03-23T06:07:24;7.00;99.90
16968;DHT22;64862;54.398;10.126;2024-03-23T06:17:27;7.00;99.90
16968;DHT22;64862;54.398;10.126;2024-03-23T06:27:32;7.00;99.90
16968;DHT22;64862;54.398;10.126;2024-03-23T06:37:35;7.00;99.90
16968;DHT22;64862;54.398;10.126;2024-03-23T06:47:38;7.00;99.90
16968;DHT22;64862;54.398;10.126;2024-03-23T06:57:42;7.20;99.90
16968;DHT22;64862;54.398;10.126;2024-03-23T07:07:45;7.40;99.90
16968;DHT22;64862;54.398;10.126;2024-03-23T07:17:48;7.50;99.90
16968;DHT22;64862;54.398;10.126;2024-03-23T07:27:53;7.50;99.90
16968;DHT22;64862;54.398;10.126;2024-03-23T07:37:56;7.40;99.90
16968;DHT22;64862;54.398;10.126;2024-03-23T07:47:59;7.40;99.90
16968;DHT22;64862;54.398;10.126;2024-03-23T07:58:01;7.50;99.90
16968;DHT22;64862;54.398;10.126;2024-03-23T08:08:06;7.70;99.90
16968;DHT22;64862;54.398;10.126;2024-03-23T08:18:08;7.80;99.90
16968;DHT22;64862;54.398;10.126;2024-03-23T08:28:11;8.00;99.90
16968;DHT22;64862;54.398;10.126;2024-03-23T08:38:13;8.30;99.90
16968;DHT22;64862;54.398;10.126;2024-03-23T08:48:17;8.60;99.90
16968;DHT22;64862;54.398;10.126;2024-03-23T08:58:20;7.10;99.90
16968;DHT22;64862;54.398;10.126;2024-03-23T09:08:25;7.10;99.90
16968;DHT22;64862;54.398;10.126;2024-03-23T09:18:27;6.80;99.90
16968;DHT22;64862;54.398;10.126;2024-03-23T09:28:30;6.50;99.90
16968;DHT22;64862;54.398;10.126;2024-03-23T09:38:33;6.60;99.90
16968;DHT22;64862;54.398;10.126;2024-03-23T09:48:37;6.80;99.90
16968;DHT22;64862;54.398;10.126;2024-03-23T09:58:39;7.00;99.90
16968;DHT22;64862;54.398;10.126;2024-03-23T10:08:42;7.20;99.90
16968;DHT22;64862;54.398;10.126;2024-03-23T10:18:45;7.60;99.90
16968;DHT22;64862;54.398;10.126;2024-03-23T10:28:54;8.00;99.90
16968;DHT22;64862;54.398;10.126;2024-03-23T10:38:59;7.80;99.90
16968;DHT22;64862;54.398;10.126;2024-03-23T10:49:03;7.80;99.90
16968;DHT22;64862;54.398;10.126;2024-03-23T10:59:06;7.80;99.90
16968;DHT22;64862;54.398;10.126;2024-03-23T11:09:41;8.00;99.90
16968;DHT22;64862;54.398;10.126;2024-03-23T11:19:53;8.40;99.90
16968;DHT22;64862;54.398;10.126;2024-03-23T11:30:14;8.80;99.90
16968;DHT22;64862;54.398;10.126;2024-03-23T11:40:18;8.90;99.90
16968;DHT22;64862;54.398;10.126;2024-03-23T11:50:23;8.20;99.90
16968;DHT22;64862;54.398;10.126;2024-03-23T12:00:25;7.90;99.90
16968;DHT22;64862;54.398;10.126;2024-03-23T12:10:29;7.90;99.90
16968;DHT22;64862;54.398;10.126;2024-03-23T12:20:32;8.20;99.90
16968;DHT22;64862;54.398;10.126;2024-03-23T12:30:39;8.40;99.90
16968;DHT22;64862;54.398;10.126;2024-03-23T12:40:41;8.60;99.90
16968;DHT22;64862;54.398;10.126;2024-03-23T12:50:45;8.00;99.90
16968;DHT22;64862;54.398;10.126;2024-03-23T13:00:48;8.40;99.90
16968;DHT22;64862;54.398;10.126;2024-03-23T13:10:53;8.50;99.90
16968;DHT22;64862;54.398;10.126;2024-03-23T13:20:57;8.90;99.90
16968;DHT22;64862;54.398;10.126;2024-03-23T13:31:02;9.00;99.90
16968;DHT22;64862;54.398;10.126;2024-03-23T13:41:04;8.80;99.90
16968;DHT22;64862;54.398;10.126;2024-03-23T13:51:08;7.80;99.90
16968;DHT22;64862;54.398;10.126;2024-03-23T14:01:11;7.50;99.90
16968;DHT22;64862;54.398;10.126;2024-03-23T14:11:14;7.30;99.90
16968;DHT22;64862;54.398;10.126;2024-03-23T14:21:17;7.40;99.90
16968;DHT22;64862;54.398;10.126;2024-03-23T14:31:20;7.40;99.90
16968;DHT22;64862;54.398;10.126;2024-03-23T14:41:22;7.50;99.90
16968;DHT22;64862;54.398;10.126;2024-03-23T14:51:26;7.80;99.90
16968;DHT22;64862;54.398;10.126;2024-03-23T15:01:29;7.90;99.90
16968;DHT22;64862;54.398;10.126;2024-03-23T15:11:32;7.90;99.90
16968;DHT22;64862;54.398;10.126;2024-03-23T15:21:34;7.80;99.90
16968;DHT22;64862;54.398;10.126;2024-03-23T15:31:37;7.70;99.90
16968;DHT22;64862;54.398;10.126;2024-03-23T15:41:39;7.70;99.90
16968;DHT22;64862;54.398;10.126;2024-03-23T15:51:42;7.80;99.90
16968;DHT22;64862;54.398;10.126;2024-03-23T16:01:44;7.90;99.90
16968;DHT22;64862;54.398;10.126;2024-03-23T16:11:48;8.10;99.90
16968;DHT22;64862;54.398;10.126;2024-03-23T16:21:49;8.10;99.90
16968;DHT22;64862;54.398;10.126;2024-03-23T16:31:53;8.10;99.90
16968;DHT22;64862;54.398;10.126;2024-03-23T16:41:55;7.80;99.90
16968;DHT22;64862;54.398;10.126;2024-03-23T16:51:58;7.70;99.90
16968;DHT22;64862;54.398;10.126;2024-03-23T17:02:00;7.70;99.90
16968;DHT22;64862;54.398;10.126;2024-03-23T17:12:05;7.60;99.90
16968;DHT22;64862;54.398;10.126;2024-03-23T17:22:07;7.40;99.90
16968;DHT22;64862;54.398;10.126;2024-03-23T17:32:11;7.10;99.90
16968;DHT22;64862;54.398;10.126;2024-03-23T17:42:14;7.00;99.90
16968;DHT22;64862;54.398;10.126;2024-03-23T17:52:18;6.80;99.90
16968;DHT22;64862;54.398;10.126;2024-03-23T18:02:20;6.80;99.90
16968;DHT22;64862;54.398;10.126;2024-03-23T18:12:24;6.70;99.90
16968;DHT22;64862;54.398;10.126;2024-03-23T18:22:27;6.70;99.90
16968;DHT22;64862;54.398;10.126;2024-03-23T18:32:31;6.60;99.90
16968;DHT22;64862;54.398;10.126;2024-03-23T18:42:33;6.70;99.90
16968;DHT22;64862;54.398;10.126;2024-03-23T18:52:37;6.70;99.90
16968;DHT22;64862;54.398;10.126;2024-03-23T19:02:40;6.60;99.90
16968;DHT22;64862;54.398;10.126;2024-03-23T19:12:45;6.70;99.90
16968;DHT22;64862;54.398;10.126;2024-03-23T19:22:48;6.80;99.90
16968;DHT22;64862;54.398;10.126;2024-03-23T19:32:55;6.90;99.90
16968;DHT22;64862;54.398;10.126;2024-03-23T19:42:57;6.80;99.90
16968;DHT22;64862;54.398;10.126;2024-03-23T19:53:01;6.80;99.90
16968;DHT22;64862;54.398;10.126;2024-03-23T20:03:05;6.80;99.90
16968;DHT22;64862;54.398;10.126;2024-03-23T20:13:10;6.80;99.90
16968;DHT22;64862;54.398;10.126;2024-03-23T20:23:12;6.90;99.90
16968;DHT22;64862;54.398;10.126;2024-03-23T20:33:15;7.00;99.90
16968;DHT22;64862;54.398;10.126;2024-03-23T20:43:19;7.00;99.90
16968;DHT22;64862;54.398;10.126;2024-03-23T20:53:25;7.00;99.90
16968;DHT22;64862;54.398;10.126;2024-03-23T21:03:27;6.90;99.90
16968;DHT22;64862;54.398;10.126;2024-03-23T21:13:30;6.80;99.90
16968;DHT22;64862;54.398;10.126;2024-03-23T21:23:33;6.90;99.90
16968;DHT22;64862;54.398;10.126;2024-03-23T21:33:38;6.90;99.90
16968;DHT22;64862;54.398;10.126;2024-03-23T21:43:40;6.80;99.90
16968;DHT22;64862;54.398;10.126;2024-03-23T21:53:44;6.80;99.90
16968;DHT22;64862;54.398;10.126;2024-03-23T22:03:46;7.00;99.90
16968;DHT22;64862;54.398;10.126;2024-03-23T22:13:50;7.00;99.90
16968;DHT22;64862;54.398;10.126;2024-03-23T22:23:52;6.80;99.90
16968;DHT22;64862;54.398;10.126;2024-03-23T22:33:55;6.80;99.90
16968;DHT22;64862;54.398;10.126;2024-03-23T22:43:57;7.00;99.90
16968;DHT22;64862;54.398;10.126;2024-03-23T22:54:00;6.90;99.90
16968;DHT22;64862;54.398;10.126;2024-03-23T23:04:02;6.90;99.90
16968;DHT22;64862;54.398;10.126;2024-03-23T23:14:06;6.70;99.90
16968;DHT22;64862;54.398;10.126;2024-03-23T23:24:08;6.80;99.90
16968;DHT22;64862;54.398;10.126;2024-03-23T23:34:11;6.70;99.90
16968;DHT22;64862;54.398;10.126;2024-03-23T23:44:13;6.70;99.90
16968;DHT22;64862;54.398;10.126;2024-03-23T23:54:16;6.60;99.90
